Flight Track Log - Related Links

Times and Time Zones

All times are in EST time to prevent confusion due to time zone crossing. See the UPS104 flight status page for this flight to view local times or setup timezone preferences in your user account.


Time Position Orientation Groundspeed Altitude Reporting Facility
EST Latitude Longitude Course Direction KTS MPH feet Rate Location/Type
Sat 03:00:39 PM 61.3461 -151.0693 262° West 386 444 16,600  Level FlightAware ADS-B
Sat 03:01:12 PM 61.3387 -151.1840 262° West 395 455 18,000 2,667 Climbing FlightAware ADS-B
Sat 03:01:42 PM 61.3312 -151.3012 262° West 400 460 19,400 2,471 Climbing FlightAware ADS-B
Sat 03:02:20 PM 61.3212 -151.4507 262° West 409 471 20,800 2,160 Climbing FlightAware ADS-B
Sat 03:02:57 PM 61.3123 -151.5831 262° West 419 482 22,100 2,175 Climbing FlightAware ADS-B
Sat 03:03:40 PM 61.2998 -151.7667 262° West 427 491 23,700 2,160 Climbing FlightAware ADS-B
Sat 03:04:12 PM 61.2905 -151.8985 262° West 434 499 24,800 1,948 Climbing FlightAware ADS-B
Sat 03:04:57 PM 61.2839 -152.0876 266° West 443 510 26,200 1,840 Climbing FlightAware ADS-B
Sat 03:05:27 PM 61.2843 -152.2170 270° West 449 517 27,100 2,476 Climbing FlightAware ADS-B
Sat 03:06:00 PM 61.2850 -152.3549 271° West 436 502 28,800 2,630 Climbing FlightAware ADS-B
Sat 03:06:40 PM 61.2857 -152.5224 271° West 430 495 30,300 1,852 Climbing FlightAware ADS-B
Sat 03:07:21 PM 61.2861 -152.6918 270° West 434 499 31,300 1,325 Climbing FlightAware ADS-B
Sat 03:07:57 PM 61.2861 -152.8389 270° West 439 505 32,000 525 Climbing FlightAware ADS-B
Sat 03:08:41 PM 61.2861 -153.0291 270° West 450 518 32,000  Level FlightAware ADS-B
Sat 03:09:12 PM 61.2859 -153.1647 270° West 452 520 32,000  Level FlightAware ADS-B
Sat 03:09:57 PM 61.2853 -153.3585 270° West 454 522 32,000  Level FlightAware ADS-B
Sat 03:10:27 PM 61.2846 -153.4919 269° West 454 522 32,000  Level FlightAware ADS-B
Sat 03:11:01 PM 61.2839 -153.6386 270° West 454 522 32,000  Level FlightAware ADS-B
Sat 03:11:40 PM 61.2829 -153.8097 269° West 455 524 32,000  Level FlightAware ADS-B
Sat 03:12:12 PM 61.2819 -153.9439 269° West 455 524 32,000  Level FlightAware ADS-B
Sat 03:12:42 PM 61.2808 -154.0766 269° West 455 524 32,000  Level FlightAware ADS-B
Sat 03:13:21 PM 61.2793 -154.2413 269° West 454 522 32,000  Level FlightAware ADS-B
Sat 03:13:57 PM 61.2776 -154.3994 269° West 454 522 32,000  Level FlightAware ADS-B
Sat 03:14:41 PM 61.2751 -154.5957 269° West 454 522 32,000  Level FlightAware ADS-B
Sat 03:15:12 PM 61.2734 -154.7286 269° West 454 522 32,000  Level FlightAware ADS-B
Sat 03:15:57 PM 61.2705 -154.9245 268° West 455 524 32,000  Level FlightAware ADS-B
Sat 03:16:52 PM 61.2670 -155.1547 268° West 455 524 32,000  Level FlightAware ADS-B
Sat 03:17:27 PM 61.2641 -155.3128 268° West 455 524 32,000  Level FlightAware ADS-B
Sat 03:18:11 PM 61.2604 -155.5087 268° West 455 524 32,000  Level FlightAware ADS-B
Sat 03:18:42 PM 61.2577 -155.6447 268° West 455 524 32,000  Level FlightAware ADS-B
Sat 03:19:27 PM 61.2535 -155.8394 268° West 455 524 32,000  Level FlightAware ADS-B
Sat 03:19:57 PM 61.2511 -155.9651 268° West 455 524 32,000  Level FlightAware ADS-B
Sat 03:20:39 PM 61.2509 -156.1552 270° West 457 526 32,000  Level FlightAware ADS-B
Sat 03:21:51 PM 61.2500 -156.4333 270° West 450 518 32,000  Level Anchorage Center
Sat 03:22:52 PM 61.2500 -156.7000 270° West 450 518 32,000  Level Anchorage Center
Sat 03:23:52 PM 61.2500 -156.9667 270° West 460 529 32,000  Level Anchorage Center
Sat 03:24:53 PM 61.2500 -157.2333 270° West 450 518 32,000  Level Anchorage Center
Sat 03:25:53 PM 61.2500 -157.5000 270° West 450 518 32,000  Level Anchorage Center
Sat 03:26:53 PM 61.2500 -157.7667 270° West 460 529 32,000  Level Anchorage Center
Sat 03:27:54 PM 61.2333 -158.0333 263° West 470 541 32,000  Level Anchorage Center
Sat 03:28:54 PM 61.2333 -158.3000 270° West 460 529 32,000  Level Anchorage Center
Sat 03:29:54 PM 61.2333 -158.5833 270° West 470 541 32,000  Level Anchorage Center
Sat 03:30:55 PM 61.2333 -158.8500 270° West 460 529 32,000  Level Anchorage Center
Sat 03:31:55 PM 61.2333 -159.1333 270° West 470 541 32,000  Level Anchorage Center
Sat 03:32:55 PM 61.2333 -159.4000 270° West 460 529 32,000  Level Anchorage Center
Sat 03:33:56 PM 61.2167 -159.6667 263° West 450 518 32,000  Level Anchorage Center
Sat 03:34:56 PM 61.2167 -159.9333 270° West 460 529 32,000  Level Anchorage Center
Sat 03:35:56 PM 61.2000 -160.2000 263° West 460 529 32,000  Level Anchorage Center
Sat 03:36:57 PM 61.2000 -160.4500 270° West 460 529 32,000  Level Anchorage Center
Sat 03:37:57 PM 61.2000 -160.7333 270° West 460 529 32,000  Level Anchorage Center
Sat 03:38:57 PM 61.1833 -161.0000 263° West 460 529 32,000  Level Anchorage Center
Sat 03:39:58 PM 61.1833 -161.2667 270° West 460 529 32,000  Level Anchorage Center
Sat 03:40:58 PM 61.1667 -161.5333 263° West 460 529 32,000  Level Anchorage Center
Sat 03:41:58 PM 61.1500 -161.8000 263° West 460 529 32,000  Level Anchorage Center
Sat 03:42:58 PM 61.1500 -162.0667 270° West 450 518 32,000  Level Anchorage Center
Sat 03:43:58 PM 61.1333 -162.3333 263° West 460 529 32,000  Level Anchorage Center
Sat 03:44:59 PM 61.1333 -162.6000 270° West 460 529 32,000  Level Anchorage Center
Sat 03:45:59 PM 61.1167 -162.8667 263° West 450 518 32,000  Level Anchorage Center
Sat 03:47:00 PM 61.1000 -163.1167 262° West 440 506 32,000  Level Anchorage Center
Sat 03:48:00 PM 61.0500 -163.3833 249° West 460 529 32,000  Level Anchorage Center
Sat 03:49:00 PM 61.0167 -163.6333 255° West 460 529 32,000  Level Anchorage Center
Sat 03:50:01 PM 60.9833 -163.8833 255° West 450 518 32,000  Level Anchorage Center
Sat 03:51:01 PM 60.9500 -164.1333 255° West 460 529 32,000  Level Anchorage Center
Sat 03:52:01 PM 60.9000 -164.3833 248° West 460 529 32,000  Level Anchorage Center
Sat 03:53:02 PM 60.8667 -164.6500 256° West 460 529 32,000  Level Anchorage Center
Sat 03:54:02 PM 60.8333 -164.9000 255° West 460 529 32,000  Level Anchorage Center
Sat 03:55:02 PM 60.8000 -165.1500 255° West 460 529 32,000  Level Anchorage Center
Sat 03:56:04 PM 60.7500 -165.4000 248° West 460 529 32,000  Level Anchorage Center
Sat 03:57:04 PM 60.7167 -165.6500 255° West 460 529 32,000  Level Anchorage Center
Sat 03:58:04 PM 60.6667 -165.9000 248° West 460 529 32,000  Level Anchorage Center
Sat 03:59:05 PM 60.6333 -166.1500 255° West 460 529 32,000  Level Anchorage Center
Sat 04:00:05 PM 60.5833 -166.4000 248° West 460 529 32,000  Level Anchorage Center
Sat 04:01:05 PM 60.5500 -166.6500 255° West 450 518 32,000  Level Anchorage Center
Sat 04:02:05 PM 60.5000 -166.8833 247° West 450 518 32,000  Level Anchorage Center
Sat 04:03:05 PM 60.4667 -167.1333 255° West 450 518 32,000  Level Anchorage Center
Sat 04:04:05 PM 60.4167 -167.3667 247° West 450 518 32,000  Level Anchorage Center
Sat 04:05:05 PM 60.3833 -167.6167 255° West 450 518 32,000  Level Anchorage Center
Sat 04:06:05 PM 60.3333 -167.8500 247° West 450 518 32,000  Level Anchorage Center
Sat 04:07:05 PM 60.3000 -168.0833 254° West 440 506 32,000  Level Anchorage Center
Sat 04:08:05 PM 60.2500 -168.3167 247° West 430 495 32,000  Level Anchorage Center
Sat 04:09:05 PM 60.2167 -168.5500 254° West 430 495 32,000  Level Anchorage Center
Sat 04:10:05 PM 60.1667 -168.7667 245° Southwest 430 495 32,000  Level Anchorage Center
Sat 04:11:05 PM 60.1167 -168.9833 245° Southwest 430 495 32,000  Level Anchorage Center
Sat 04:12:05 PM 60.0833 -169.2167 254° West 440 506 32,000  Level Anchorage Center
Sat 04:13:05 PM 60.0333 -169.4500 247° West 450 518 32,000  Level Anchorage Center
Sat 04:14:06 PM 59.9833 -169.6833 247° West 450 518 32,000  Level Anchorage Center
Sat 04:15:06 PM 59.9500 -169.9167 254° West 430 495 32,000  Level Anchorage Center
Sat 04:16:05 PM 59.9000 -170.1333 245° Southwest 440 506 32,000  Level Anchorage Center
Sat 04:17:06 PM 59.8500 -170.3833 248° West 430 495 32,000  Level Anchorage Center
Sat 04:18:06 PM 59.8167 -170.5833 252° West 420 483 32,000  Level Anchorage Center
Sat 04:19:06 PM 59.7667 -170.8000 245° Southwest 420 483 32,000  Level Anchorage Center
Sat 04:20:06 PM 59.7167 -171.0333 247° West 430 495 32,000  Level Anchorage Center
Sat 04:21:06 PM 59.6667 -171.2500 246° West 430 495 32,000  Level Anchorage Center
Sat 04:22:06 PM 59.6167 -171.4833 247° West 440 506 32,000  Level Anchorage Center
Sat 04:23:06 PM 59.5667 -171.7000 246° West 430 495 32,000  Level Anchorage Center
Sat 04:24:06 PM 59.5333 -171.9167 253° West 430 495 32,000  Level Anchorage Center
Sat 04:25:06 PM 59.4833 -172.1333 246° West 430 495 32,000  Level Anchorage Center
Sat 04:26:06 PM 59.4500 -172.3167 250° West 430 495 32,000  Level Anchorage Center
Sat 04:27:06 PM 59.3833 -172.5833 244° Southwest 420 483 32,000  Level Anchorage Center
Sat 04:28:06 PM 59.3500 -172.8000 253° West 420 483 32,000  Level Anchorage Center
Sat 04:29:06 PM 59.3000 -173.0000 244° Southwest 410 472 32,000  Level Anchorage Center
Sat 04:30:06 PM 59.2667 -173.2167 253° West 420 483 32,000  Level Anchorage Center
Sat 04:31:06 PM 59.2167 -173.4167 244° Southwest 410 472 32,000  Level Anchorage Center
Sat 04:32:07 PM 59.1667 -173.6167 244° Southwest 410 472 32,000  Level Anchorage Center
Sat 04:33:06 PM 59.1333 -173.8333 253° West 410 472 32,000  Level Anchorage Center
Sat 04:34:07 PM 59.0833 -174.0333 244° Southwest 400 460 32,000  Level Anchorage Center
Sat 04:35:07 PM 59.0333 -174.2333 244° Southwest 410 472 32,000  Level Anchorage Center
Sat 04:36:07 PM 59.0000 -174.4333 252° West 410 472 32,000  Level Anchorage Center
Sat 04:37:07 PM 58.9500 -174.6500 246° West 420 483 32,000  Level Anchorage Center
Sat 04:38:07 PM 58.9000 -174.8500 244° Southwest 410 472 32,000  Level Anchorage Center
Sat 04:39:07 PM 58.8500 -175.0667 246° West 410 472 32,000  Level Anchorage Center
Sat 04:40:07 PM 58.8167 -175.2667 252° West 410 472 32,000  Level Anchorage Center
Sat 04:41:07 PM 58.7667 -175.4667 244° Southwest 420 483 32,000  Level Anchorage Center
Sat 04:42:07 PM 58.7167 -175.6833 246° West 420 483 32,000  Level Anchorage Center
Sat 04:45:22 PM 58.5500 -176.3333 244° Southwest 420 483 32,000  Level Anchorage Center
Sat 04:46:22 PM 58.5167 -176.5333 252° West 410 472 32,000  Level Anchorage Center
Sat 04:49:08 PM 58.4000 -177.0667 245° Southwest 384 442 32,000  Level Anchorage Center
Sat 04:49:26 PM 58.3833 -177.1000 245° Southwest 412 474 32,000  Level Anchorage Center
Sat 04:58:38 PM 57.9167 -178.9167 243° Southwest 397 457 32,000  Level Anchorage Center
Sat 05:08:17 PM 57.4333 179.3667 242° Southwest 377 434 32,000  Level Anchorage Center
Sat 05:17:49 PM 56.9667 177.7500 240° Southwest 377 434 32,000  Level Anchorage Center
Sat 05:20:24 PM 56.8333 177.3500 240° Southwest 378 435 32,000  Level Anchorage Center
Sat 05:27:24 PM 56.4500 176.1667 239° Southwest 365 420 32,000  Level Anchorage Center
Sat 05:37:07 PM 55.9500 174.7000 238° Southwest 360 414 32,000  Level Anchorage Center
Sat 05:38:16 PM 55.8667 174.4833 237° Southwest 390 449 32,000  Level Anchorage Center
Sat 05:39:00 PM 55.8175 174.3340 237° Southwest 365 420 32,000  Level FlightAware Transoceanic
Sat 05:39:16 PM 55.8167 174.3667 233° Southwest 370 426 32,000  Level Anchorage Center
Sat 05:40:00 PM 55.7635 174.1840 237° Southwest 365 420 32,000  Level FlightAware Transoceanic
Sat 05:40:16 PM 55.7667 174.2000 242° Southwest 370 426 32,000  Level Anchorage Center
Sat 05:41:00 PM 55.7094 174.0344 237° Southwest 365 420 32,000  Level FlightAware Transoceanic
Sat 05:41:16 PM 55.7167 174.0667 236° Southwest 370 426 32,000  Level Anchorage Center
Sat 05:42:00 PM 55.6552 173.8852 237° Southwest 365 420 32,000  Level FlightAware Transoceanic
Sat 05:42:16 PM 55.6500 173.9000 235° Southwest 360 414 32,000  Level Anchorage Center
Sat 05:43:00 PM 55.6178 173.7789 237° Southwest 360 414 32,000  Level FlightAware Transoceanic
Sat 05:43:16 PM 55.5833 173.7333 235° Southwest 360 414 32,000  Level Anchorage Center
Sat 05:44:16 PM 55.5500 173.6000 246° West 370 426 32,000  Level Anchorage Center
Sat 05:45:16 PM 55.4833 173.4333 235° Southwest 370 426 32,000  Level Anchorage Center
Sat 05:46:16 PM 55.4333 173.3167 233° Southwest 360 414 32,000  Level Anchorage Center
Sat 05:47:16 PM 55.3667 173.1500 235° Southwest 360 414 32,000  Level Anchorage Center
Sat 05:48:16 PM 55.3167 173.0167 237° Southwest 360 414 32,000  Level Anchorage Center
Sat 05:49:16 PM 55.2667 172.8500 242° Southwest 380 437 32,000  Level Anchorage Center
Sat 05:50:16 PM 55.2167 172.7167 237° Southwest 370 426 32,000  Level Anchorage Center
Sat 05:51:16 PM 55.1500 172.5500 235° Southwest 390 449 32,000  Level Anchorage Center
Sat 05:52:16 PM 55.0833 172.4000 232° Southwest 370 426 32,000  Level Anchorage Center
Sat 05:53:16 PM 55.0333 172.2667 237° Southwest 380 437 32,000  Level Anchorage Center
Sat 05:54:16 PM 54.9667 172.1000 235° Southwest 360 414 32,000  Level Anchorage Center
Sat 05:55:16 PM 54.9167 171.9667 237° Southwest 380 437 32,000  Level Anchorage Center
Sat 05:56:17 PM 54.8500 171.8000 235° Southwest 400 460 32,000  Level Anchorage Center
Sat 05:57:17 PM 54.7833 171.6667 229° Southwest 390 449 32,000  Level Anchorage Center
Sat 05:58:17 PM 54.7167 171.5000 235° Southwest 400 460 32,000  Level Anchorage Center
Sat 05:59:17 PM 54.6500 171.3167 238° Southwest 400 460 32,000  Level Anchorage Center
Sat 06:00:17 PM 54.6000 171.1833 237° Southwest 410 472 32,000  Level Anchorage Center
Sat 06:01:17 PM 54.5167 171.0167 229° Southwest 400 460 32,000  Level Anchorage Center
Sat 06:02:17 PM 54.4667 170.8833 237° Southwest 410 472 32,000  Level Anchorage Center
Sat 06:03:17 PM 54.3833 170.7000 232° Southwest 420 483 32,000  Level Anchorage Center
Sat 06:04:17 PM 54.3333 170.5667 237° Southwest 410 472 32,000  Level Anchorage Center
Sat 06:05:17 PM 54.2500 170.4000 229° Southwest 410 472 32,000  Level Anchorage Center
Sat 06:06:17 PM 54.2000 170.2500 240° Southwest 430 495 32,000  Level Anchorage Center
Sat 06:07:17 PM 54.1167 170.0833 230° Southwest 410 472 32,000  Level Anchorage Center
Sat 06:08:17 PM 54.0500 169.9167 236° Southwest 420 483 32,000  Level Anchorage Center
Sat 06:10:18 PM 53.9000 169.6000 231° Southwest 430 495 32,000  Level Anchorage Center
Sat 06:11:17 PM 53.8500 169.4667 238° Southwest 420 483 32,000  Level Anchorage Center
Sat 06:12:18 PM 53.7833 169.3000 236° Southwest 390 449 32,000  Level Anchorage Center
Sat 06:15:26 PM 53.5833 168.7667 240° Southwest 429 494 32,000  Level Anchorage Center
Sat 06:18:31 PM 53.4167 168.2333 240° Southwest 426 490 32,000  Level Anchorage Center
Sat 06:25:02 PM 53.0000 167.1000 239° Southwest 422 486 32,000  Level Anchorage Center
Sat 06:40:19 PM 52.1167 164.7667 237° Southwest 431 496 32,000  Level Anchorage Center
Sat 06:44:20 PM 51.7500 163.8667 236° Southwest 439 505 32,000  Level Anchorage Center
Sat 06:45:40 PM 51.6500 163.6500 236° Southwest 440 506 32,000  Level Anchorage Center
Sat 06:53:50 PM 51.0833 162.3000 235° Southwest 433 498 32,000  Level Anchorage Center
Sat 07:03:57 PM 50.4000 160.7833 234° Southwest 435 501 32,000  Level Anchorage Center
Sat 07:06:16 PM 50.2000 160.3833 234° Southwest 431 496 32,000  Level Anchorage Center
Sat 07:07:00 PM 50.1562 160.2632 234° Southwest 433 498 32,000  Level FlightAware Transoceanic
Sat 07:08:00 PM 50.0835 160.1099 233° Southwest 433 498 32,000  Level FlightAware Transoceanic
Sat 07:09:00 PM 50.0105 159.9570 233° Southwest 433 498 32,000  Level FlightAware Transoceanic
Sat 07:10:00 PM 49.9235 159.7757 233° Southwest 435 501 32,000  Level FlightAware Transoceanic
Sat 07:11:00 PM 49.8547 159.6334 233° Southwest 435 501 32,000  Level FlightAware Transoceanic
Sat 07:12:00 PM 49.7863 159.4964 234° Southwest 431 496 32,000  Level FlightAware Transoceanic
Sat 07:13:00 PM 49.7167 159.3500 233° Southwest 431 496 32,000  Level FlightAware Transoceanic
Sat 07:14:00 PM 49.6489 159.2116 233° Southwest 431 496 32,000  Level FlightAware Transoceanic
Sat 07:15:00 PM 49.5809 159.0735 233° Southwest 431 496 32,000  Level FlightAware Transoceanic
Sat 07:16:00 PM 49.5128 158.9359 233° Southwest 431 496 32,000  Level FlightAware Transoceanic
Sat 07:17:00 PM 49.4445 158.7986 233° Southwest 431 496 32,000  Level FlightAware Transoceanic
Sat 07:18:00 PM 49.3761 158.6617 232° Southwest 431 496 32,000  Level FlightAware Transoceanic
Sat 07:19:00 PM 49.3075 158.5252 232° Southwest 431 496 32,000  Level FlightAware Transoceanic
Sat 07:20:00 PM 49.2388 158.3891 232° Southwest 431 496 32,000  Level FlightAware Transoceanic
Sat 07:21:00 PM 49.1698 158.2534 232° Southwest 431 496 32,000  Level FlightAware Transoceanic
Sat 07:22:00 PM 49.1008 158.1180 232° Southwest 431 496 32,000  Level FlightAware Transoceanic
Sat 07:23:00 PM 49.0315 157.9830 232° Southwest 431 496 32,000  Level FlightAware Transoceanic
Sat 07:24:00 PM 48.9621 157.8484 232° Southwest 431 496 32,000  Level FlightAware Transoceanic
Sat 07:25:00 PM 48.8926 157.7142 232° Southwest 431 496 32,000  Level FlightAware Transoceanic
Sat 07:26:00 PM 48.8229 157.5803 232° Southwest 431 496 32,000  Level FlightAware Transoceanic
Sat 07:27:00 PM 48.7530 157.4468 231° Southwest 431 496 32,000  Level FlightAware Transoceanic
Sat 07:28:00 PM 48.6830 157.3137 231° Southwest 431 496 32,000  Level FlightAware Transoceanic
Sat 07:29:00 PM 48.6129 157.1809 231° Southwest 431 496 32,000  Level FlightAware Transoceanic
Sat 07:30:00 PM 48.5425 157.0485 231° Southwest 431 496 32,000  Level FlightAware Transoceanic
Sat 07:31:00 PM 48.4721 156.9165 231° Southwest 431 496 32,000  Level FlightAware Transoceanic
Sat 07:32:00 PM 48.4014 156.7849 231° Southwest 431 496 32,000  Level FlightAware Transoceanic
Sat 07:33:00 PM 48.3307 156.6536 231° Southwest 431 496 32,000  Level FlightAware Transoceanic
Sat 07:34:00 PM 48.2598 156.5226 231° Southwest 431 496 32,000  Level FlightAware Transoceanic
Sat 07:35:00 PM 48.1887 156.3921 231° Southwest 431 496 32,000  Level FlightAware Transoceanic
Sat 07:36:00 PM 48.1175 156.2619 231° Southwest 431 496 32,000  Level FlightAware Transoceanic
Sat 07:37:00 PM 48.0461 156.1321 231° Southwest 431 496 32,000  Level FlightAware Transoceanic
Sat 07:38:00 PM 47.9746 156.0026 230° Southwest 431 496 32,000  Level FlightAware Transoceanic
Sat 07:39:00 PM 47.9030 155.8735 230° Southwest 431 496 32,000  Level FlightAware Transoceanic
Sat 07:40:00 PM 47.8312 155.7447 230° Southwest 431 496 32,000  Level FlightAware Transoceanic
Sat 07:41:00 PM 47.7592 155.6163 230° Southwest 431 496 32,000  Level FlightAware Transoceanic
Sat 07:42:00 PM 47.6871 155.4883 230° Southwest 431 496 32,000  Level FlightAware Transoceanic
Sat 07:43:00 PM 47.6149 155.3606 230° Southwest 431 496 32,000  Level FlightAware Transoceanic
Sat 07:44:00 PM 47.5426 155.2332 230° Southwest 431 496 32,000  Level FlightAware Transoceanic
Sat 07:45:00 PM 47.4701 155.1062 230° Southwest 431 496 32,000  Level FlightAware Transoceanic
Sat 07:46:00 PM 47.3974 154.9796 230° Southwest 431 496 32,000  Level FlightAware Transoceanic
Sat 07:47:00 PM 47.3246 154.8533 230° Southwest 431 496 32,000  Level FlightAware Transoceanic
Sat 07:48:00 PM 47.2517 154.7274 229° Southwest 431 496 32,000  Level FlightAware Transoceanic
Sat 07:49:00 PM 47.1786 154.6018 229° Southwest 431 496 32,000  Level FlightAware Transoceanic
Sat 07:50:00 PM 47.1054 154.4765 229° Southwest 431 496 32,000  Level FlightAware Transoceanic
Sat 07:51:00 PM 47.0321 154.3516 229° Southwest 431 496 32,000  Level FlightAware Transoceanic
Sat 07:52:00 PM 46.9586 154.2270 229° Southwest 431 496 32,000  Level FlightAware Transoceanic
Sat 07:53:00 PM 46.8850 154.1028 229° Southwest 431 496 32,000  Level FlightAware Transoceanic
Sat 07:54:00 PM 46.8113 153.9789 229° Southwest 431 496 32,000  Level FlightAware Transoceanic
Sat 07:55:00 PM 46.7374 153.8554 229° Southwest 431 496 32,000  Level FlightAware Transoceanic
Sat 07:56:00 PM 46.6634 153.7322 229° Southwest 431 496 32,000  Level FlightAware Transoceanic
Sat 07:57:00 PM 46.5893 153.6093 229° Southwest 431 496 32,000  Level FlightAware Transoceanic
Sat 07:58:00 PM 46.5150 153.4868 229° Southwest 431 496 32,000  Level FlightAware Transoceanic
Sat 07:59:00 PM 46.4406 153.3646 228° Southwest 431 496 32,000  Level FlightAware Transoceanic
Sat 08:00:00 PM 46.3661 153.2427 228° Southwest 431 496 32,000  Level FlightAware Transoceanic
Sat 08:01:00 PM 46.2915 153.1212 228° Southwest 431 496 32,000  Level FlightAware Transoceanic
Sat 08:02:00 PM 46.2179 153.0020 228° Southwest  Level FlightAware Approximate
Sat 08:03:00 PM 46.1441 152.8831 228° Southwest  Level FlightAware Approximate
Sat 08:04:00 PM 46.1450 152.8856 228° Southwest  Level FlightAware Approximate
Sat 08:05:00 PM 46.0707 152.7675 228° Southwest  Level FlightAware Approximate
Sat 08:06:00 PM 45.9963 152.6499 228° Southwest  Level FlightAware Approximate
Sat 08:07:00 PM 45.9218 152.5325 228° Southwest  Level FlightAware Approximate
Sat 08:08:00 PM 45.8472 152.4154 228° Southwest  Level FlightAware Approximate
Sat 08:09:00 PM 45.7724 152.2986 227° Southwest  Level FlightAware Approximate
Sat 08:10:00 PM 45.6975 152.1822 227° Southwest  Level FlightAware Approximate
Sat 08:11:00 PM 45.6226 152.0661 227° Southwest  Level FlightAware Approximate
Sat 08:12:00 PM 45.5474 151.9503 227° Southwest  Level FlightAware Approximate
Sat 08:13:00 PM 45.4722 151.8347 227° Southwest  Level FlightAware Approximate
Sat 08:14:00 PM 45.3969 151.7195 227° Southwest  Level FlightAware Approximate
Sat 08:15:00 PM 45.3214 151.6047 227° Southwest  Level FlightAware Approximate
Sat 08:16:00 PM 45.2459 151.4901 227° Southwest  Level FlightAware Approximate
Sat 08:17:00 PM 45.1702 151.3758 227° Southwest  Level FlightAware Approximate
Sat 08:18:00 PM 45.0944 151.2618 227° Southwest  Level FlightAware Approximate
Sat 08:19:00 PM 45.0185 151.1481 227° Southwest  Level FlightAware Approximate
Sat 08:20:00 PM 44.9425 151.0347 227° Southwest  Level FlightAware Approximate
Sat 08:21:00 PM 44.8663 150.9217 226° Southwest  Level FlightAware Approximate
Sat 08:22:00 PM 44.7901 150.8089 226° Southwest  Level FlightAware Approximate
Sat 08:23:00 PM 44.7137 150.6964 226° Southwest  Level FlightAware Approximate
Sat 08:24:00 PM 44.6372 150.5842 226° Southwest  Level FlightAware Approximate
Sat 08:25:00 PM 44.5607 150.4723 226° Southwest  Level FlightAware Approximate
Sat 08:26:00 PM 44.4840 150.3607 226° Southwest  Level FlightAware Approximate
Sat 08:27:00 PM 44.4072 150.2495 226° Southwest  Level FlightAware Approximate
Sat 08:28:00 PM 44.3303 150.1384 226° Southwest  Level FlightAware Approximate
Sat 08:29:00 PM 44.2533 150.0277 226° Southwest  Level FlightAware Approximate
Sat 08:30:00 PM 44.1762 149.9173 226° Southwest  Level FlightAware Approximate
Sat 08:31:00 PM 44.0989 149.8071 226° Southwest  Level FlightAware Approximate
Sat 08:32:00 PM 44.0216 149.6973 226° Southwest  Level FlightAware Approximate
Sat 08:33:00 PM 43.9442 149.5877 226° Southwest  Level FlightAware Approximate
Sat 08:34:00 PM 43.8666 149.4785 225° Southwest  Level FlightAware Approximate
Sat 08:35:00 PM 43.7890 149.3695 225° Southwest  Level FlightAware Approximate
Sat 08:36:00 PM 43.7113 149.2608 225° Southwest  Level FlightAware Approximate
Sat 08:37:00 PM 43.6334 149.1523 225° Southwest  Level FlightAware Approximate
Sat 08:38:00 PM 43.5555 149.0442 225° Southwest  Level FlightAware Approximate
Sat 08:39:00 PM 43.4774 148.9363 225° Southwest  Level FlightAware Approximate
Sat 08:40:00 PM 43.3993 148.8287 225° Southwest  Level FlightAware Approximate
Sat 08:41:00 PM 43.3210 148.7214 225° Southwest  Level FlightAware Approximate
Sat 08:42:00 PM 43.2426 148.6144 225° Southwest  Level FlightAware Approximate
Sat 08:43:00 PM 43.1642 148.5076 225° Southwest  Level FlightAware Approximate
Sat 08:44:00 PM 43.0857 148.4011 225° Southwest  Level FlightAware Approximate
Sat 08:45:00 PM 43.0070 148.2949 225° Southwest  Level FlightAware Approximate
Sat 08:46:00 PM 42.9282 148.1890 225° Southwest  Level FlightAware Approximate
Sat 08:47:00 PM 42.8494 148.0833 225° Southwest  Level FlightAware Approximate
Sat 08:48:00 PM 42.7705 147.9779 224° Southwest  Level FlightAware Approximate
Sat 08:49:00 PM 42.6914 147.8728 224° Southwest  Level FlightAware Approximate
Sat 08:50:00 PM 42.6123 147.7679 224° Southwest  Level FlightAware Approximate
Sat 08:51:00 PM 42.5331 147.6633 224° Southwest  Level FlightAware Approximate
Sat 08:52:00 PM 42.4538 147.5590 224° Southwest  Level FlightAware Approximate
Sat 08:53:00 PM 42.3744 147.4548 225° Southwest  Level FlightAware Approximate
Sat 08:54:00 PM 42.2957 147.3499 225° Southwest  Level FlightAware Approximate
Sat 08:55:00 PM 42.2169 147.2452 225° Southwest  Level FlightAware Approximate
Sat 08:56:00 PM 42.1380 147.1408 224° Southwest  Level FlightAware Approximate
Sat 08:57:00 PM 42.0590 147.0367 224° Southwest  Level FlightAware Approximate
Sat 08:58:00 PM 41.9799 146.9328 224° Southwest  Level FlightAware Approximate
Sat 08:59:00 PM 41.9006 146.8293 224° Southwest  Level FlightAware Approximate
Sat 09:00:00 PM 41.8207 146.7268 224° Southwest  Level FlightAware Approximate
Sat 09:01:00 PM 41.7407 146.6246 224° Southwest  Level FlightAware Approximate
Sat 09:02:00 PM 41.6607 146.5226 224° Southwest  Level FlightAware Approximate
Sat 09:03:00 PM 41.5805 146.4208 224° Southwest  Level FlightAware Approximate
Sat 09:04:00 PM 41.5003 146.3194 223° Southwest  Level FlightAware Approximate
Sat 09:05:00 PM 41.4199 146.2181 223° Southwest  Level FlightAware Approximate
Sat 09:06:00 PM 41.3395 146.1171 223° Southwest  Level FlightAware Approximate
Sat 09:07:00 PM 41.2590 146.0164 223° Southwest  Level FlightAware Approximate
Sat 09:08:00 PM 41.1784 145.9159 223° Southwest  Level FlightAware Approximate
Sat 09:09:00 PM 41.0977 145.8156 223° Southwest  Level FlightAware Approximate
Sat 09:10:00 PM 41.0169 145.7156 223° Southwest  Level FlightAware Approximate
Sat 09:11:00 PM 40.9361 145.6159 223° Southwest  Level FlightAware Approximate
Sat 09:12:00 PM 40.8551 145.5164 223° Southwest  Level FlightAware Approximate
Sat 09:13:00 PM 40.7741 145.4171 223° Southwest  Level FlightAware Approximate
Sat 09:14:00 PM 40.6930 145.3181 223° Southwest  Level FlightAware Approximate
Sat 09:15:00 PM 40.6118 145.2193 223° Southwest  Level FlightAware Approximate
Sat 09:16:00 PM 40.5305 145.1207 223° Southwest  Level FlightAware Approximate
Sat 09:17:00 PM 40.4491 145.0224 223° Southwest  Level FlightAware Approximate
Sat 09:18:00 PM 40.3814 144.9094 238° Southwest  Level FlightAware Approximate
Sat 09:19:00 PM 40.3226 144.7866 238° Southwest  Level FlightAware Approximate
Sat 09:20:00 PM 40.2636 144.6640 238° Southwest  Level FlightAware Approximate
Sat 09:21:00 PM 40.2046 144.5417 238° Southwest  Level FlightAware Approximate
Sat 09:22:00 PM 40.1454 144.4196 238° Southwest  Level FlightAware Approximate
Sat 09:23:00 PM 40.0861 144.2976 238° Southwest  Level FlightAware Approximate
Sat 09:24:00 PM 40.0266 144.1759 237° Southwest  Level FlightAware Approximate
Sat 09:25:00 PM 39.9671 144.0544 237° Southwest  Level FlightAware Approximate
Sat 09:26:00 PM 39.9074 143.9332 237° Southwest  Level FlightAware Approximate
Sat 09:27:00 PM 39.8476 143.8121 237° Southwest  Level FlightAware Approximate
Sat 09:28:00 PM 39.7888 143.6902 238° Southwest  Level FlightAware Approximate
Sat 09:29:00 PM 39.7304 143.5683 238° Southwest  Level FlightAware Approximate
Sat 09:30:00 PM 39.6717 143.4465 238° Southwest  Level FlightAware Approximate
Sat 09:31:00 PM 39.6130 143.3249 238° Southwest  Level FlightAware Approximate
Sat 09:32:00 PM 39.5542 143.2036 238° Southwest  Level FlightAware Approximate
Sat 09:33:00 PM 39.4952 143.0824 238° Southwest  Level FlightAware Approximate
Sat 09:34:00 PM 39.4361 142.9615 238° Southwest  Level FlightAware Approximate
Sat 09:35:00 PM 39.3768 142.8408 238° Southwest  Level FlightAware Approximate
Sat 09:36:00 PM 39.3175 142.7203 238° Southwest  Level FlightAware Approximate
Sat 09:37:00 PM 39.2580 142.5999 237° Southwest  Level FlightAware Approximate
Sat 09:38:00 PM 39.1947 142.4834 230° Southwest  Level FlightAware Approximate
Sat 09:39:00 PM 39.1229 142.3750 230° Southwest  Level FlightAware Approximate
Sat 09:40:00 PM 39.0511 142.2668 229° Southwest  Level FlightAware Approximate
Sat 09:41:00 PM 38.9791 142.1589 229° Southwest  Level FlightAware Approximate
Sat 09:42:00 PM 38.9071 142.0511 229° Southwest  Level FlightAware Approximate
Sat 09:43:00 PM 38.8349 141.9436 229° Southwest  Level FlightAware Approximate
Sat 09:44:00 PM 38.7627 141.8363 229° Southwest  Level FlightAware Approximate
Sat 09:45:00 PM 38.6903 141.7293 229° Southwest  Level FlightAware Approximate
Sat 09:46:00 PM 38.6179 141.6224 229° Southwest  Level FlightAware Approximate
Sat 09:47:00 PM 38.5454 141.5158 229° Southwest  Level FlightAware Approximate
Sat 09:48:00 PM 38.4727 141.4093 229° Southwest  Level FlightAware Approximate
Sat 09:49:00 PM 38.4000 141.3031 229° Southwest  Level FlightAware Approximate
Sat 09:50:00 PM 38.3272 141.1971 229° Southwest  Level FlightAware Approximate
Sat 09:51:00 PM 38.2543 141.0913 229° Southwest  Level FlightAware Approximate
Sat 09:52:00 PM 38.1813 140.9858 229° Southwest  Level FlightAware Approximate
Sat 09:53:00 PM 38.1283 140.8687 262° West  Level FlightAware Approximate
Sat 09:54:00 PM 38.1137 140.7295 262° West  Level FlightAware Approximate
Sat 09:55:00 PM 38.0989 140.5903 262° West  Level FlightAware Approximate
Sat 09:56:00 PM 38.0835 140.4513 262° West  Level FlightAware Approximate
Sat 09:57:00 PM 38.0696 140.3121 263° West  Level FlightAware Approximate
Sat 09:58:00 PM 38.0565 140.1727 263° West  Level FlightAware Approximate
Sat 09:59:00 PM 38.0435 140.0333 263° West  Level FlightAware Approximate
Sat 10:00:00 PM 38.0304 139.8940 263° West  Level FlightAware Approximate
Sat 10:01:00 PM 38.0171 139.7548 263° West  Level FlightAware Approximate
Sat 10:02:00 PM 38.0032 139.6156 263° West  Level FlightAware Approximate
Sat 10:03:00 PM 37.9891 139.4766 263° West  Level FlightAware Approximate
Sat 10:04:00 PM 37.9748 139.3376 263° West  Level FlightAware Approximate
Sat 10:05:00 PM 37.9604 139.1986 263° West  Level FlightAware Approximate
Sat 10:06:00 PM 37.9311 139.0671 234° Southwest  Level FlightAware Approximate
Sat 10:07:00 PM 37.8661 138.9539 234° Southwest  Level FlightAware Approximate
Sat 10:08:00 PM 37.8009 138.8409 234° Southwest  Level FlightAware Approximate
Sat 10:09:00 PM 37.7356 138.7282 234° Southwest  Level FlightAware Approximate
Sat 10:10:00 PM 37.6702 138.6156 234° Southwest  Level FlightAware Approximate
Sat 10:11:00 PM 37.6047 138.5032 234° Southwest  Level FlightAware Approximate
Sat 10:12:00 PM 37.5402 138.3900 235° Southwest  Level FlightAware Approximate
Sat 10:13:00 PM 37.4761 138.2765 235° Southwest  Level FlightAware Approximate
Sat 10:14:00 PM 37.4119 138.1632 235° Southwest  Level FlightAware Approximate
Sat 10:15:00 PM 37.3476 138.0501 234° Southwest  Level FlightAware Approximate
Sat 10:16:00 PM 37.2826 137.9377 233° Southwest  Level FlightAware Approximate
Sat 10:17:00 PM 37.2172 137.8259 234° Southwest  Level FlightAware Approximate
Sat 10:18:00 PM 37.1515 137.7144 233° Southwest  Level FlightAware Approximate
Sat 10:19:00 PM 37.0843 137.6043 233° Southwest  Level FlightAware Approximate
Sat 10:20:00 PM 37.0171 137.4945 233° Southwest  Level FlightAware Approximate
Sat 10:21:00 PM 36.9549 137.3802 237° Southwest  Level FlightAware Approximate
Sat 10:22:00 PM 36.8944 137.2646 237° Southwest  Level FlightAware Approximate
Sat 10:23:00 PM 36.8337 137.1491 237° Southwest  Level FlightAware Approximate
Sat 10:24:00 PM 36.7682 137.0381 232° Southwest  Level FlightAware Approximate
Sat 10:25:00 PM 36.7007 136.9289 232° Southwest  Level FlightAware Approximate
Sat 10:26:00 PM 36.6331 136.8199 232° Southwest  Level FlightAware Approximate
Sat 10:27:00 PM 36.5667 136.7100 234° Southwest  Level FlightAware Approximate
Sat 10:28:00 PM 36.5013 136.5991 234° Southwest  Level FlightAware Approximate
Sat 10:29:00 PM 36.4358 136.4884 234° Southwest  Level FlightAware Approximate
Sat 10:30:00 PM 36.3636 136.3876 207° Southwest  Level FlightAware Approximate
Sat 10:31:00 PM 36.2649 136.3260 207° Southwest  Level FlightAware Approximate
Sat 10:32:00 PM 36.1692 136.2578 207° Southwest  Level FlightAware Approximate
Sat 10:33:00 PM 36.0705 136.1961 207° Southwest  Level FlightAware Approximate
Sat 10:34:00 PM 35.9691 136.1422 204° Southwest  Level FlightAware Approximate
Sat 10:35:00 PM 35.8680 136.0870 204° Southwest  Level FlightAware Approximate
Sat 10:36:00 PM 35.7677 136.0298 207° Southwest  Level FlightAware Approximate
Sat 10:37:00 PM 35.6692 135.9682 207° Southwest  Level FlightAware Approximate
Sat 10:38:00 PM 35.5726 135.9030 202° Southwest  Level FlightAware Approximate
Sat 10:39:00 PM 35.4716 135.8480 205° Southwest  Level FlightAware Approximate
Sat 10:40:00 PM 35.3716 135.7901 206° Southwest  Level FlightAware Approximate
Sat 10:41:00 PM 35.2720 135.7314 206° Southwest  Level FlightAware Approximate
Sat 10:42:00 PM 35.1724 135.6729 206° Southwest  Level FlightAware Approximate
Sat 10:43:00 PM 35.0722 135.6160 204° Southwest  Level FlightAware Approximate
Sat 10:44:00 PM 34.9720 135.5591 209° Southwest  Level FlightAware Approximate
Sat 10:45:00 PM 34.8749 135.4949 206° Southwest  Level FlightAware Approximate
Sat 10:46:00 PM 34.7739 135.4413 195° South  Level FlightAware Approximate
Sat 10:47:00 PM 34.6749 135.3832 209° Southwest  Level FlightAware Approximate
Sat 10:48:00 PM 34.5762 135.3230 209° Southwest  Level FlightAware Approximate
Sat 10:49:00 PM 34.4754 135.2685 206° Southwest  Level FlightAware Approximate
Sat 10:50:00 PM 34.4273 135.2441 206° Southwest  Level Estimated
Sat 10:51:00 PM 34.4273 135.2441 206° Southwest  Level Estimated
Sat 10:52:00 PM 34.4273 135.2441 206° Southwest  Level Estimated
Sat 10:53:00 PM 34.4273 135.2441 206° Southwest  Level Estimated
Sat 10:54:00 PM 34.4273 135.2441 206° Southwest  Level Estimated
Sat 10:55:00 PM 34.4273 135.2441 206° Southwest  Level Estimated
Sat 10:56:00 PM 34.4273 135.2441 206° Southwest  Level Estimated
Sat 10:57:00 PM 34.4273 135.2441 206° Southwest  Level Estimated
Sat 10:58:00 PM 34.4273 135.2441 206° Southwest  Level Estimated
Sat 10:59:00 PM 34.4273 135.2441 206° Southwest  Level Estimated
Sat 11:00:00 PM 34.4273 135.2441 206° Southwest  Level Estimated
Sat 11:01:00 PM 34.4273 135.2441 206° Southwest  Level Estimated
Sat 11:02:00 PM 34.4273 135.2441 206° Southwest  Level Estimated
Sat 11:03:00 PM 34.4273 135.2441 206° Southwest  Level Estimated
Sat 11:04:00 PM 34.4273 135.2441 206° Southwest  Level Estimated
Sat 11:05:00 PM 34.4273 135.2441 206° Southwest  Level Estimated
Sat 11:06:00 PM 34.4273 135.2441 206° Southwest  Level Estimated
Sat 11:07:00 PM 34.4273 135.2441 206° Southwest  Level Estimated
Sat 11:08:00 PM 34.4273 135.2441 206° Southwest  Level Estimated
Sat 11:09:00 PM 34.4273 135.2441 206° Southwest  Level Estimated
Sat 11:10:00 PM 34.4273 135.2441 206° Southwest  Level Estimated
Sat 11:11:00 PM 34.4273 135.2441 206° Southwest  Level Estimated
Sat 11:12:00 PM 34.4273 135.2441 206° Southwest  Level Estimated
Sat 11:13:00 PM 34.4273 135.2441 206° Southwest  Level Estimated
Sat 11:14:00 PM 34.4273 135.2441 206° Southwest  Level Estimated
Sat 11:15:00 PM 34.4273 135.2441 206° Southwest  Level Estimated
Sat 11:16:00 PM 34.4273 135.2441 206° Southwest  Level Estimated
Sat 11:17:00 PM 34.4273 135.2441 206° Southwest  Level Estimated

Login

Don't have an account? Register now (free) for customized features, flight alerts, and more!